createdAt,value
2017-06-30T00:01:26.963Z,24.10
2017-06-30T00:03:54.036Z,24.03
2017-06-30T00:06:21.114Z,24.01
2017-06-30T00:08:48.222Z,24.01
2017-06-30T00:11:15.293Z,24.04
2017-06-30T00:13:42.364Z,24.08
2017-06-30T00:16:09.479Z,24.09
2017-06-30T00:18:36.549Z,24.03
2017-06-30T00:21:03.621Z,23.95
2017-06-30T00:23:30.729Z,23.88
2017-06-30T00:25:57.803Z,23.87
2017-06-30T00:28:24.876Z,23.82
2017-06-30T00:30:51.992Z,23.77
2017-06-30T00:33:19.063Z,23.78
2017-06-30T00:35:46.129Z,23.80
2017-06-30T00:38:13.243Z,23.57
2017-06-30T00:40:40.318Z,23.49
2017-06-30T00:43:07.389Z,23.49
2017-06-30T00:45:34.508Z,23.44
2017-06-30T00:48:01.583Z,23.44
2017-06-30T00:50:28.648Z,23.41
2017-06-30T00:52:55.754Z,23.31
2017-06-30T00:55:22.823Z,23.27
2017-06-30T00:57:49.919Z,23.14
2017-06-30T01:00:17.033Z,23.21
2017-06-30T01:02:44.107Z,23.23
2017-06-30T01:05:11.178Z,23.16
2017-06-30T01:07:38.293Z,23.06
2017-06-30T01:10:05.367Z,23.13
2017-06-30T01:12:32.438Z,23.17
2017-06-30T01:14:59.549Z,23.17
2017-06-30T01:17:26.616Z,23.21
2017-06-30T01:19:53.685Z,23.25
2017-06-30T01:22:20.800Z,23.26
2017-06-30T01:24:47.874Z,23.26
2017-06-30T01:27:14.951Z,23.24
2017-06-30T01:29:42.057Z,23.28
2017-06-30T01:32:09.133Z,23.24
2017-06-30T01:34:36.202Z,23.19
2017-06-30T01:37:03.330Z,23.22
2017-06-30T01:39:30.405Z,23.22
2017-06-30T01:41:57.473Z,23.19
2017-06-30T01:44:24.594Z,23.10
2017-06-30T01:46:51.670Z,23.09
2017-06-30T01:49:18.737Z,23.12
2017-06-30T01:51:45.839Z,23.10
2017-06-30T01:54:12.916Z,23.12
2017-06-30T01:56:39.989Z,23.15
2017-06-30T01:59:07.110Z,23.11
2017-06-30T02:01:34.174Z,23.06
2017-06-30T02:04:01.240Z,23.09
2017-06-30T02:06:28.355Z,23.07
2017-06-30T02:08:55.528Z,23.11
2017-06-30T02:11:22.598Z,23.05
2017-06-30T02:13:49.707Z,23.04
2017-06-30T02:16:16.776Z,23.05
2017-06-30T02:18:43.903Z,23.04
2017-06-30T02:21:11.027Z,23.08
2017-06-30T02:23:38.098Z,23.08
2017-06-30T02:26:05.171Z,23.07
2017-06-30T02:28:32.280Z,23.18
2017-06-30T02:30:59.350Z,23.16
2017-06-30T02:33:26.416Z,23.17
2017-06-30T02:35:53.549Z,23.19
2017-06-30T02:38:20.620Z,23.24
2017-06-30T02:40:47.687Z,23.34
2017-06-30T02:43:14.815Z,23.43
2017-06-30T02:45:41.887Z,23.46
2017-06-30T02:48:08.963Z,23.45
2017-06-30T02:50:36.081Z,23.41
2017-06-30T02:53:03.145Z,23.45
2017-06-30T02:55:30.214Z,23.47
2017-06-30T02:57:57.329Z,23.54
2017-06-30T03:00:24.395Z,23.57
2017-06-30T03:02:51.484Z,23.61
2017-06-30T03:05:18.591Z,23.66
2017-06-30T03:07:45.668Z,23.67
2017-06-30T03:10:12.743Z,23.68
2017-06-30T03:12:39.861Z,23.73
2017-06-30T03:15:06.926Z,23.71
2017-06-30T03:17:33.989Z,23.72
2017-06-30T03:20:01.097Z,23.71
2017-06-30T03:22:28.162Z,23.59
2017-06-30T03:24:55.234Z,23.47
2017-06-30T03:27:22.353Z,23.45
2017-06-30T03:29:49.430Z,23.41
2017-06-30T03:32:16.506Z,23.38
2017-06-30T03:34:43.626Z,23.35
2017-06-30T03:37:10.740Z,23.24
2017-06-30T03:39:37.827Z,23.22
2017-06-30T03:42:04.934Z,23.15
2017-06-30T03:44:32.001Z,23.05
2017-06-30T03:46:59.082Z,23.07
2017-06-30T03:49:26.184Z,23.02
2017-06-30T03:51:53.257Z,23.02
2017-06-30T03:54:20.324Z,23.11
2017-06-30T03:56:47.451Z,23.14
2017-06-30T03:59:14.528Z,23.17
2017-06-30T04:01:41.642Z,23.27
2017-06-30T04:04:08.745Z,23.28
2017-06-30T04:06:35.824Z,23.22
2017-06-30T04:09:02.894Z,23.19
2017-06-30T04:11:30.151Z,23.19
2017-06-30T04:13:57.225Z,23.21
2017-06-30T04:16:24.297Z,23.24
2017-06-30T04:18:51.411Z,23.35
2017-06-30T04:21:18.487Z,23.45
2017-06-30T04:23:45.604Z,23.39
2017-06-30T04:26:12.733Z,23.33
2017-06-30T04:28:39.815Z,23.29
2017-06-30T04:31:06.879Z,23.31
2017-06-30T04:33:34.001Z,23.34
2017-06-30T04:36:01.104Z,23.37
2017-06-30T04:38:28.172Z,23.50
2017-06-30T04:40:55.314Z,23.61
2017-06-30T04:43:22.444Z,23.71
2017-06-30T04:45:49.514Z,23.75
2017-06-30T04:48:16.637Z,23.77
2017-06-30T04:50:43.739Z,23.81
2017-06-30T04:53:10.804Z,23.82
2017-06-30T04:55:37.909Z,23.85
2017-06-30T04:58:04.988Z,23.86
2017-06-30T05:00:32.069Z,23.87
2017-06-30T05:02:59.171Z,23.89
2017-06-30T05:05:26.239Z,23.90
2017-06-30T05:07:53.314Z,23.93
2017-06-30T05:10:20.434Z,23.94
2017-06-30T05:12:47.501Z,23.97
2017-06-30T05:15:14.565Z,23.98
2017-06-30T05:17:41.687Z,23.99
2017-06-30T05:20:08.758Z,24.00
2017-06-30T05:22:35.835Z,24.01
2017-06-30T05:25:02.949Z,24.01
2017-06-30T05:27:30.024Z,24.03
2017-06-30T05:29:57.092Z,24.05
2017-06-30T05:32:24.220Z,24.06
2017-06-30T05:34:51.297Z,24.07
2017-06-30T05:37:18.366Z,24.08
2017-06-30T05:39:45.484Z,24.07
2017-06-30T05:42:12.573Z,24.10
2017-06-30T05:44:39.652Z,24.09
2017-06-30T05:47:06.786Z,24.10
2017-06-30T05:49:33.849Z,24.10
2017-06-30T05:52:00.922Z,24.09
2017-06-30T05:54:28.032Z,24.10
2017-06-30T05:56:55.678Z,24.11
2017-06-30T05:59:22.853Z,24.13
2017-06-30T06:01:49.964Z,24.14
2017-06-30T06:04:17.031Z,24.15
2017-06-30T06:06:44.105Z,24.16
2017-06-30T06:09:11.319Z,24.17
2017-06-30T06:11:38.385Z,24.17
2017-06-30T06:14:05.453Z,24.16
2017-06-30T06:16:32.667Z,24.16
2017-06-30T06:18:59.741Z,24.20
2017-06-30T06:21:26.811Z,24.19
2017-06-30T06:23:53.923Z,24.21
2017-06-30T06:26:21.069Z,24.20
2017-06-30T06:28:48.143Z,24.20
2017-06-30T06:31:15.249Z,24.19
2017-06-30T06:33:42.326Z,24.23
2017-06-30T06:36:09.394Z,24.21
2017-06-30T06:38:36.518Z,24.21
2017-06-30T06:41:03.585Z,24.19
2017-06-30T06:43:30.657Z,24.20
2017-06-30T06:45:57.785Z,24.22
2017-06-30T06:48:24.866Z,24.22
2017-06-30T06:50:51.937Z,24.22
2017-06-30T06:53:19.070Z,24.21
2017-06-30T06:55:46.140Z,24.20
2017-06-30T06:58:13.212Z,24.22
2017-06-30T07:00:40.344Z,24.20
2017-06-30T07:03:07.417Z,24.22
2017-06-30T07:05:34.488Z,24.23
2017-06-30T07:08:01.693Z,24.24
2017-06-30T07:10:28.764Z,24.28
2017-06-30T07:12:55.834Z,24.27
2017-06-30T07:15:22.957Z,24.26
2017-06-30T07:17:50.031Z,24.26
2017-06-30T07:20:17.098Z,24.26
2017-06-30T07:22:44.200Z,24.26
2017-06-30T07:25:11.269Z,24.27
2017-06-30T07:27:38.339Z,24.20
2017-06-30T07:30:05.446Z,24.20
2017-06-30T07:32:32.526Z,24.15
2017-06-30T07:34:59.605Z,24.16
2017-06-30T07:37:26.720Z,24.19
2017-06-30T07:39:53.800Z,24.18
2017-06-30T07:42:20.871Z,24.16
2017-06-30T07:44:48.006Z,24.12
2017-06-30T07:47:15.071Z,24.12
2017-06-30T07:49:42.148Z,24.11
2017-06-30T07:52:09.257Z,24.14
2017-06-30T07:54:36.330Z,24.11
2017-06-30T07:57:03.401Z,24.13
2017-06-30T07:59:30.526Z,24.14
2017-06-30T08:01:57.598Z,24.12
2017-06-30T08:04:24.672Z,24.09
2017-06-30T08:06:51.781Z,24.08
2017-06-30T08:09:18.850Z,24.07
2017-06-30T08:11:45.917Z,24.07
2017-06-30T08:14:13.029Z,24.08
2017-06-30T08:16:40.102Z,24.08
2017-06-30T08:19:07.178Z,24.09
2017-06-30T08:21:34.297Z,24.11
2017-06-30T08:24:01.387Z,24.11
2017-06-30T08:26:28.457Z,24.12
2017-06-30T08:28:55.561Z,24.11
2017-06-30T08:31:22.630Z,24.13
2017-06-30T08:33:49.712Z,24.13
2017-06-30T08:36:16.833Z,24.15
2017-06-30T08:38:43.906Z,24.17
2017-06-30T08:41:10.977Z,24.16
2017-06-30T08:43:38.100Z,24.17
2017-06-30T08:46:05.166Z,24.18
2017-06-30T08:48:32.242Z,24.19
2017-06-30T08:50:59.359Z,24.20
2017-06-30T08:53:26.434Z,24.19
2017-06-30T08:55:53.501Z,24.17
2017-06-30T08:58:20.621Z,24.15
2017-06-30T09:00:47.692Z,24.17
2017-06-30T09:03:14.772Z,24.24
2017-06-30T09:05:42.874Z,24.29
2017-06-30T09:08:09.948Z,24.31
2017-06-30T09:10:37.024Z,24.33
2017-06-30T09:13:04.138Z,24.36
2017-06-30T09:15:31.228Z,24.31
2017-06-30T09:17:58.397Z,24.30
2017-06-30T09:20:25.497Z,24.32
2017-06-30T09:22:52.594Z,24.32
2017-06-30T09:25:19.656Z,24.33
2017-06-30T09:27:46.809Z,24.35
2017-06-30T09:30:13.900Z,24.36
2017-06-30T09:32:40.969Z,24.38
2017-06-30T09:35:08.075Z,24.37
2017-06-30T09:37:35.149Z,24.39
2017-06-30T09:40:02.221Z,24.36
2017-06-30T09:42:29.345Z,24.37
2017-06-30T09:44:56.432Z,24.37
2017-06-30T09:47:23.516Z,24.35
2017-06-30T09:49:50.651Z,24.35
2017-06-30T09:52:17.716Z,24.35
2017-06-30T09:54:44.789Z,24.30
2017-06-30T09:57:11.925Z,24.30
2017-06-30T09:59:39.014Z,24.30
2017-06-30T10:02:06.082Z,24.31
2017-06-30T10:04:33.206Z,24.32
2017-06-30T10:07:00.267Z,24.29
2017-06-30T10:09:27.337Z,24.32
2017-06-30T10:11:54.465Z,24.30
2017-06-30T10:14:21.610Z,24.30
2017-06-30T10:16:48.684Z,24.30
2017-06-30T10:19:15.809Z,24.31
2017-06-30T10:21:42.883Z,24.33
2017-06-30T10:24:09.956Z,24.34
2017-06-30T10:26:37.076Z,24.31
2017-06-30T10:29:04.142Z,24.30
2017-06-30T10:31:31.222Z,24.30
2017-06-30T10:33:58.330Z,24.29
2017-06-30T10:36:25.400Z,24.31
2017-06-30T10:38:52.467Z,24.32
2017-06-30T10:41:19.590Z,24.31
2017-06-30T10:43:46.665Z,24.28
2017-06-30T10:46:13.747Z,24.30
2017-06-30T10:48:40.862Z,24.33
2017-06-30T10:51:07.934Z,24.31
2017-06-30T10:53:35.001Z,24.31
2017-06-30T10:56:02.125Z,24.33
2017-06-30T10:58:29.202Z,24.32
2017-06-30T11:00:56.272Z,24.34
2017-06-30T11:03:23.384Z,24.35
2017-06-30T11:05:50.453Z,24.34
2017-06-30T11:08:17.533Z,24.36
2017-06-30T11:10:44.652Z,24.36
2017-06-30T11:13:11.716Z,24.36
2017-06-30T11:15:38.789Z,24.39
2017-06-30T11:18:05.906Z,24.40
2017-06-30T11:20:32.973Z,24.42
2017-06-30T11:23:00.041Z,24.41
2017-06-30T11:25:27.170Z,24.40
2017-06-30T11:27:54.243Z,24.41
2017-06-30T11:30:21.318Z,24.40
2017-06-30T11:32:48.434Z,24.41
2017-06-30T11:35:15.507Z,24.39
2017-06-30T11:37:42.577Z,24.40
2017-06-30T11:40:09.693Z,24.42
2017-06-30T11:42:36.758Z,24.41
2017-06-30T11:45:03.825Z,24.44
2017-06-30T11:47:30.940Z,24.45
2017-06-30T11:49:58.009Z,24.43
2017-06-30T11:52:25.078Z,24.46
2017-06-30T11:54:52.299Z,24.45
2017-06-30T11:57:19.378Z,24.46
2017-06-30T11:59:46.448Z,24.47
2017-06-30T12:02:13.602Z,24.48
2017-06-30T12:04:40.705Z,24.48
2017-06-30T12:07:07.787Z,24.50
2017-06-30T12:09:34.906Z,24.50
2017-06-30T12:12:01.989Z,24.53
2017-06-30T12:14:29.069Z,24.54
2017-06-30T12:16:56.176Z,24.52
2017-06-30T12:19:23.248Z,24.52
2017-06-30T12:21:50.327Z,24.53
2017-06-30T12:24:17.452Z,24.52
2017-06-30T12:26:44.521Z,24.55
2017-06-30T12:29:11.594Z,24.56
2017-06-30T12:31:38.703Z,24.57
2017-06-30T12:34:05.777Z,24.58
2017-06-30T12:36:32.845Z,24.57
2017-06-30T12:38:59.952Z,24.60
2017-06-30T12:41:27.028Z,24.60
2017-06-30T12:43:54.128Z,24.61
2017-06-30T12:46:21.313Z,24.63
2017-06-30T12:48:48.388Z,24.63
2017-06-30T12:51:15.520Z,24.67
2017-06-30T12:53:42.628Z,24.67
2017-06-30T12:56:09.905Z,24.69
2017-06-30T12:58:36.974Z,24.70
2017-06-30T13:01:04.077Z,24.72
2017-06-30T13:03:31.146Z,24.72
2017-06-30T13:05:58.218Z,24.71
2017-06-30T13:08:25.329Z,24.71
2017-06-30T13:10:52.415Z,24.72
2017-06-30T13:13:19.483Z,24.72
2017-06-30T13:15:46.624Z,24.72
2017-06-30T13:18:13.698Z,24.74
2017-06-30T13:20:40.769Z,24.78
2017-06-30T13:23:07.881Z,24.75
2017-06-30T13:25:34.952Z,24.77
2017-06-30T13:28:02.017Z,24.79
2017-06-30T13:30:29.129Z,24.79
2017-06-30T13:32:56.200Z,24.81
2017-06-30T13:35:23.274Z,24.83
2017-06-30T13:37:50.391Z,24.85
2017-06-30T13:40:17.557Z,24.82
2017-06-30T13:42:44.638Z,24.85
2017-06-30T13:45:11.860Z,24.85
2017-06-30T13:47:39.011Z,24.85
2017-06-30T13:50:06.085Z,24.84
2017-06-30T13:52:33.204Z,24.84
2017-06-30T13:55:00.273Z,24.83
2017-06-30T13:57:27.342Z,24.83
2017-06-30T13:59:54.493Z,24.81
2017-06-30T14:02:21.557Z,24.78
2017-06-30T14:04:48.645Z,24.78
2017-06-30T14:07:15.763Z,24.78
2017-06-30T14:09:42.829Z,24.78
2017-06-30T14:12:09.902Z,24.78
2017-06-30T14:14:37.026Z,24.79
2017-06-30T14:17:04.097Z,24.81
2017-06-30T14:19:31.169Z,24.85
2017-06-30T14:21:58.298Z,24.90
2017-06-30T14:25:05.889Z,24.97
2017-06-30T14:27:33.015Z,24.90
2017-06-30T14:30:00.100Z,25.00
2017-06-30T14:32:27.179Z,25.09
2017-06-30T14:34:54.286Z,25.15
2017-06-30T14:37:21.357Z,25.20
2017-06-30T14:39:48.434Z,25.24
2017-06-30T14:42:15.560Z,25.24
2017-06-30T14:44:42.627Z,25.32
2017-06-30T14:47:09.832Z,25.31
2017-06-30T14:49:37.018Z,25.24
2017-06-30T14:52:04.092Z,25.21
2017-06-30T14:54:31.157Z,25.23
2017-06-30T14:56:58.264Z,25.22
2017-06-30T14:59:25.340Z,25.20
2017-06-30T15:01:52.411Z,25.19
2017-06-30T15:04:19.517Z,25.19
2017-06-30T15:06:46.580Z,25.18
2017-06-30T15:09:13.651Z,25.17
2017-06-30T15:11:40.777Z,25.17
2017-06-30T15:14:07.848Z,25.17
2017-06-30T15:16:34.928Z,25.17
2017-06-30T15:19:02.044Z,25.16
2017-06-30T15:21:29.107Z,25.14
2017-06-30T15:23:56.179Z,25.12
2017-06-30T15:26:23.291Z,25.13
2017-06-30T15:28:50.363Z,25.12
2017-06-30T15:31:17.476Z,25.11
2017-06-30T15:33:44.601Z,25.09
2017-06-30T15:36:11.685Z,25.07
2017-06-30T15:38:38.758Z,25.07
2017-06-30T15:41:05.873Z,25.07
2017-06-30T15:43:32.946Z,25.06
2017-06-30T15:46:00.019Z,25.04
2017-06-30T15:48:27.135Z,25.05
2017-06-30T15:50:54.201Z,25.03
2017-06-30T15:53:21.270Z,25.03
2017-06-30T15:55:48.388Z,25.03
2017-06-30T15:58:15.466Z,25.03
2017-06-30T16:00:42.543Z,25.03
2017-06-30T16:03:09.649Z,25.02
2017-06-30T16:05:36.724Z,25.01
2017-06-30T16:08:03.790Z,25.01
2017-06-30T16:10:30.940Z,25.00
2017-06-30T16:12:58.020Z,25.01
2017-06-30T16:15:25.088Z,25.00
2017-06-30T16:17:52.234Z,25.01
2017-06-30T16:20:19.304Z,25.01
2017-06-30T16:22:46.373Z,25.00
2017-06-30T16:25:13.469Z,25.00
2017-06-30T16:27:40.533Z,25.01
2017-06-30T16:30:07.634Z,24.99
2017-06-30T16:32:34.746Z,24.99
2017-06-30T16:35:01.820Z,24.98
2017-06-30T16:37:28.890Z,24.99
2017-06-30T16:39:56.012Z,24.99
2017-06-30T16:42:23.085Z,24.96
2017-06-30T16:44:50.155Z,24.97
2017-06-30T16:47:17.279Z,24.96
2017-06-30T16:49:44.347Z,24.97
2017-06-30T16:52:11.442Z,24.96
2017-06-30T16:54:38.558Z,24.96
2017-06-30T16:57:05.627Z,24.96
2017-06-30T16:59:32.702Z,24.96
2017-06-30T17:01:59.818Z,24.96
2017-06-30T17:04:26.899Z,24.95
2017-06-30T17:06:53.965Z,24.95
2017-06-30T17:09:21.090Z,24.94
2017-06-30T17:11:48.162Z,24.95
2017-06-30T17:14:15.234Z,24.93
2017-06-30T17:16:42.354Z,24.93
2017-06-30T17:19:09.420Z,24.98
2017-06-30T17:21:36.508Z,25.07
2017-06-30T17:24:03.619Z,25.04
2017-06-30T17:26:30.695Z,25.17
2017-06-30T17:28:57.757Z,25.14
2017-06-30T17:31:24.890Z,25.10
2017-06-30T17:33:51.953Z,25.12
2017-06-30T17:36:19.021Z,25.14
2017-06-30T17:38:46.141Z,25.15
2017-06-30T17:41:13.212Z,25.20
2017-06-30T17:43:40.338Z,25.18
2017-06-30T17:46:07.439Z,25.12
2017-06-30T17:48:34.509Z,25.12
2017-06-30T17:51:01.574Z,25.12
2017-06-30T17:53:28.688Z,25.12
2017-06-30T17:55:55.760Z,25.13
2017-06-30T17:58:22.938Z,25.15
2017-06-30T18:00:50.062Z,25.15
2017-06-30T18:03:17.129Z,25.16
2017-06-30T18:05:44.194Z,25.16
2017-06-30T18:08:11.318Z,25.19
2017-06-30T18:10:38.389Z,25.19
2017-06-30T18:13:05.481Z,25.19
2017-06-30T18:15:32.603Z,25.19
2017-06-30T18:17:59.673Z,25.22
2017-06-30T18:20:26.744Z,25.21
2017-06-30T18:22:53.861Z,25.21
2017-06-30T18:25:20.951Z,25.21
2017-06-30T18:27:48.021Z,25.20
2017-06-30T18:30:15.123Z,25.22
2017-06-30T18:32:42.193Z,25.19
2017-06-30T18:35:09.263Z,25.17
2017-06-30T18:37:36.369Z,25.18
2017-06-30T18:40:03.438Z,25.20
2017-06-30T18:42:30.511Z,25.20
2017-06-30T18:44:57.633Z,25.17
2017-06-30T18:47:24.704Z,25.15
2017-06-30T18:49:51.774Z,25.11
2017-06-30T18:52:18.898Z,25.08
2017-06-30T18:54:46.042Z,25.06
2017-06-30T18:57:13.112Z,25.08
2017-06-30T18:59:40.225Z,25.10
2017-06-30T19:02:07.297Z,25.10
2017-06-30T19:04:34.363Z,25.10
2017-06-30T19:07:01.483Z,25.09
2017-06-30T19:09:28.561Z,25.08
2017-06-30T19:11:55.631Z,25.05
2017-06-30T19:14:22.770Z,25.04
2017-06-30T19:16:49.847Z,25.03
2017-06-30T19:19:16.960Z,25.02
2017-06-30T19:21:44.053Z,25.02
2017-06-30T19:24:11.128Z,25.03
2017-06-30T19:26:38.185Z,25.04
2017-06-30T19:29:05.305Z,25.03
2017-06-30T19:31:32.373Z,25.05
2017-06-30T19:33:59.446Z,25.11
2017-06-30T19:36:26.560Z,25.15
2017-06-30T19:38:53.628Z,25.16
2017-06-30T19:41:20.727Z,25.18
2017-06-30T19:43:47.859Z,25.17
2017-06-30T19:46:14.938Z,25.15
2017-06-30T19:48:42.023Z,25.14
2017-06-30T19:51:09.144Z,25.12
2017-06-30T19:53:36.209Z,25.12
2017-06-30T19:56:03.277Z,25.13
2017-06-30T19:58:30.388Z,25.12
2017-06-30T20:00:57.461Z,25.11
2017-06-30T20:03:24.536Z,25.11
2017-06-30T20:05:51.651Z,25.05
2017-06-30T20:08:18.723Z,25.10
2017-06-30T20:10:45.798Z,25.13
2017-06-30T20:13:12.919Z,25.12
2017-06-30T20:15:39.989Z,25.11
2017-06-30T20:18:07.060Z,25.13
2017-06-30T20:20:34.189Z,25.14
2017-06-30T20:23:01.262Z,25.11
2017-06-30T20:25:28.325Z,25.09
2017-06-30T20:27:55.489Z,25.10
2017-06-30T20:30:22.561Z,25.15
2017-06-30T20:32:49.632Z,25.18
2017-06-30T20:35:16.749Z,25.16
2017-06-30T20:37:43.812Z,25.13
2017-06-30T20:40:10.878Z,25.10
2017-06-30T20:42:38.013Z,25.08
2017-06-30T20:45:05.081Z,25.03
2017-06-30T20:47:32.148Z,25.00
2017-06-30T20:49:59.251Z,24.96
2017-06-30T20:52:26.322Z,24.95
2017-06-30T20:54:53.394Z,25.45
2017-06-30T20:57:20.515Z,25.87
2017-06-30T20:59:47.585Z,25.41
2017-06-30T21:02:14.659Z,25.16
2017-06-30T21:04:41.778Z,24.98
2017-06-30T21:07:08.851Z,24.89
2017-06-30T21:09:35.926Z,24.85
2017-06-30T21:12:03.041Z,24.80
2017-06-30T21:14:30.117Z,24.70
2017-06-30T21:16:57.224Z,24.70
2017-06-30T21:19:24.490Z,24.68
2017-06-30T21:21:51.591Z,24.63
2017-06-30T21:24:18.665Z,24.63
2017-06-30T21:26:45.823Z,24.62
2017-06-30T21:29:12.939Z,24.62
2017-06-30T21:31:40.015Z,24.62
2017-06-30T21:34:07.146Z,24.72
2017-06-30T21:36:34.481Z,24.69
2017-06-30T21:39:01.606Z,24.70
2017-06-30T21:41:28.731Z,24.66
2017-06-30T21:43:55.807Z,24.62
2017-06-30T21:46:22.972Z,24.64
2017-06-30T21:48:50.251Z,24.63
2017-06-30T21:51:17.349Z,24.57
2017-06-30T21:53:44.429Z,24.58
2017-06-30T21:56:11.685Z,24.56
2017-06-30T21:58:38.761Z,24.53
2017-06-30T22:01:05.847Z,24.50
2017-06-30T22:03:32.971Z,24.50
2017-06-30T22:06:00.050Z,24.49
2017-06-30T22:08:27.161Z,24.48
2017-06-30T22:10:54.294Z,24.46
2017-06-30T22:13:21.366Z,24.46
2017-06-30T22:15:48.440Z,24.45
2017-06-30T22:18:15.542Z,24.41
2017-06-30T22:20:42.627Z,24.38
2017-06-30T22:23:09.696Z,24.37
2017-06-30T22:25:36.797Z,24.34
2017-06-30T22:28:03.864Z,24.33
2017-06-30T22:30:30.942Z,24.34
2017-06-30T22:32:58.053Z,24.35
2017-06-30T22:35:25.119Z,24.30
2017-06-30T22:37:52.194Z,24.32
2017-06-30T22:40:19.302Z,24.30
2017-06-30T22:42:46.382Z,24.30
2017-06-30T22:45:13.458Z,24.26
2017-06-30T22:47:40.578Z,24.28
2017-06-30T22:50:07.654Z,24.27
2017-06-30T22:52:34.729Z,24.25
2017-06-30T22:55:01.828Z,24.24
2017-06-30T22:57:28.900Z,24.25
2017-06-30T22:59:55.970Z,24.23
2017-06-30T23:02:23.093Z,24.22
2017-06-30T23:04:50.164Z,24.23
2017-06-30T23:07:17.236Z,24.21
2017-06-30T23:09:44.338Z,24.23
2017-06-30T23:12:12.095Z,24.21
2017-06-30T23:14:39.169Z,24.20
2017-06-30T23:17:06.286Z,24.18
2017-06-30T23:19:33.353Z,24.18
2017-06-30T23:22:00.420Z,24.11
2017-06-30T23:24:27.522Z,24.01
2017-06-30T23:26:54.602Z,23.97
2017-06-30T23:29:21.669Z,24.00
2017-06-30T23:31:48.783Z,24.07
2017-06-30T23:34:15.856Z,23.93
2017-06-30T23:36:42.932Z,23.89
2017-06-30T23:39:10.058Z,23.89
2017-06-30T23:41:37.128Z,23.96
2017-06-30T23:44:04.200Z,23.99
2017-06-30T23:46:31.305Z,24.01
2017-06-30T23:48:58.370Z,24.01
2017-06-30T23:51:25.444Z,23.99
2017-06-30T23:53:52.557Z,24.00
2017-06-30T23:56:19.631Z,23.99
2017-06-30T23:58:46.702Z,23.94
